Time;durP1;ratioP1;P1;durP2;ratioP2;P2;SDS_P1;SDS_P2;PMS_P1;PMS_P2;Temp;Humidity;BMP_temperature;BMP_pressure;BME280_temperature;BME280_humidity;BME280_pressure;Samples;Min_cycle;Max_cycle;Signal;HPM_P1;HPM_P2
2020/12/09 00:01:21;;;;;;;38.20;18.85;;;;;;;-1.76;70.57;100556.79;1694107;83;25985;-52
2020/12/09 00:03:48;;;;;;;38.65;18.50;;;;;;;-1.78;70.54;100560.98;1694444;84;25890;-49
2020/12/09 00:06:15;;;;;;;40.92;20.23;;;;;;;-1.78;70.62;100567.61;1694245;84;26150;-54
2020/12/09 00:08:41;;;;;;;45.23;20.30;;;;;;;-1.81;70.61;100570.70;1694289;84;25738;-55
2020/12/09 00:11:09;;;;;;;47.20;20.05;;;;;;;-1.81;70.76;100568.57;1694121;84;26244;-52
2020/12/09 00:13:38;;;;;;;45.33;20.92;;;;;;;-1.79;70.74;100576.59;1692147;84;26374;-49
2020/12/09 00:16:05;;;;;;;45.10;19.77;;;;;;;-1.81;70.53;100582.63;1694561;84;25795;-50
2020/12/09 00:18:31;;;;;;;44.23;19.98;;;;;;;-1.81;70.56;100584.48;1694193;84;25394;-54
2020/12/09 00:20:58;;;;;;;43.73;20.40;;;;;;;-1.84;70.63;100579.61;1694203;83;25811;-50
2020/12/09 00:23:25;;;;;;;45.67;21.77;;;;;;;-1.83;70.64;100575.95;1694313;84;26184;-54
2020/12/09 00:25:52;;;;;;;45.65;22.00;;;;;;;-1.85;70.59;100582.79;1694075;83;25885;-50
2020/12/09 00:28:20;;;;;;;45.43;20.32;;;;;;;-1.85;70.56;100588.62;1694284;83;25876;-50
2020/12/09 00:30:47;;;;;;;42.62;20.02;;;;;;;-1.87;70.62;100584.86;1693906;84;25858;-54
2020/12/09 00:33:13;;;;;;;41.85;20.05;;;;;;;-1.85;70.70;100591.27;1694147;84;25900;-52
2020/12/09 00:35:40;;;;;;;46.20;20.15;;;;;;;-1.85;70.73;100587.29;1694398;84;26478;-54
2020/12/09 00:38:07;;;;;;;40.60;18.90;;;;;;;-1.83;70.67;100592.66;1693897;84;26694;-53
2020/12/09 00:40:34;;;;;;;46.25;20.92;;;;;;;-1.84;70.56;100589.70;1694279;84;25892;-52
2020/12/09 00:43:04;;;;;;;46.48;18.98;;;;;;;-1.83;70.59;100587.35;1694504;84;25843;-56
2020/12/09 00:45:31;;;;;;;39.03;18.82;;;;;;;-1.85;70.29;100583.31;1694487;84;25762;-54
2020/12/09 00:48:00;;;;;;;40.38;19.95;;;;;;;-1.86;70.46;100590.96;1694470;84;27108;-53
2020/12/09 00:50:29;;;;;;;43.35;19.77;;;;;;;-1.85;70.47;100589.94;1694241;83;25746;-50
2020/12/09 00:52:56;;;;;;;40.58;19.25;;;;;;;-1.86;70.39;100602.37;1694116;84;30828;-49
2020/12/09 00:55:23;;;;;;;40.17;18.07;;;;;;;-1.86;70.46;100601.05;1694306;83;25739;-53
2020/12/09 00:57:51;;;;;;;38.98;18.35;;;;;;;-1.88;70.22;100593.83;1695057;84;25834;-51
2020/12/09 01:00:18;;;;;;;38.40;18.67;;;;;;;-1.90;70.17;100605.17;1697912;84;25756;-48
2020/12/09 01:02:45;;;;;;;41.77;18.75;;;;;;;-1.92;70.28;100607.23;1708809;83;25698;-48
2020/12/09 01:05:13;;;;;;;42.58;19.20;;;;;;;-1.94;70.24;100610.11;1708882;83;25821;-50
2020/12/09 01:07:41;;;;;;;39.85;18.92;;;;;;;-1.96;70.16;100613.50;1708889;83;26366;-50
2020/12/09 01:10:09;;;;;;;43.42;19.52;;;;;;;-1.97;70.23;100611.86;1708947;83;25833;-51
2020/12/09 01:12:41;;;;;;;44.67;19.23;;;;;;;-1.98;70.11;100605.45;1709042;83;25732;-50
2020/12/09 01:15:09;;;;;;;38.10;18.82;;;;;;;-2.00;70.19;100609.64;1709097;83;25675;-51
2020/12/09 01:17:36;;;;;;;38.78;19.12;;;;;;;-2.01;70.19;100604.06;1709113;83;25682;-48
2020/12/09 01:20:05;;;;;;;42.85;20.10;;;;;;;-2.01;70.25;100623.94;1709009;83;25568;-51
2020/12/09 01:22:32;;;;;;;43.08;17.95;;;;;;;-2.00;70.25;100603.54;1709128;83;25638;-50
2020/12/09 01:24:58;;;;;;;40.00;19.48;;;;;;;-2.01;70.23;100596.59;1709022;83;26340;-46
2020/12/09 01:27:25;;;;;;;42.27;19.07;;;;;;;-2.02;70.04;100601.62;1708904;82;25682;-52
2020/12/09 01:29:52;;;;;;;43.98;19.85;;;;;;;-2.03;70.26;100599.98;1708949;83;25730;-47
2020/12/09 01:32:19;;;;;;;42.23;18.35;;;;;;;-2.02;70.29;100604.27;1708914;83;25576;-49
2020/12/09 01:34:46;;;;;;;40.00;18.82;;;;;;;-2.01;70.38;100603.23;1708986;83;25636;-49
2020/12/09 01:37:13;;;;;;;40.92;19.57;;;;;;;-2.01;70.22;100593.45;1709031;83;26174;-46
2020/12/09 01:39:41;;;;;;;42.10;19.23;;;;;;;-2.01;70.17;100595.27;1708923;83;26336;-49
2020/12/09 01:42:08;;;;;;;39.73;18.73;;;;;;;-2.02;70.05;100598.97;1708952;83;25831;-49
2020/12/09 01:44:35;;;;;;;43.65;19.25;;;;;;;-2.03;70.17;100590.19;1708992;83;25846;-48
2020/12/09 01:47:06;;;;;;;41.53;18.32;;;;;;;-2.01;70.21;100586.00;1709017;83;25650;-49
2020/12/09 01:49:34;;;;;;;40.95;18.73;;;;;;;-2.03;70.08;100584.88;1708882;82;26342;-52
2020/12/09 01:52:02;;;;;;;38.05;18.57;;;;;;;-2.02;70.08;100592.34;1709108;83;25671;-49
2020/12/09 01:54:32;;;;;;;37.27;17.70;;;;;;;-2.12;69.97;100588.33;1709303;83;25612;-48
2020/12/09 01:57:08;;;;;;;40.98;18.35;;;;;;;-2.06;69.94;100583.98;1708886;83;25872;-48
2020/12/09 01:59:43;;;;;;;38.97;17.97;;;;;;;-2.01;70.01;100582.85;1846962;76;34332;-48
2020/12/09 02:02:11;;;;;;;37.93;17.05;;;;;;;-2.10;70.03;100583.62;1817045;78;25689;-47
2020/12/09 02:04:38;;;;;;;37.50;18.80;;;;;;;-2.11;69.90;100579.86;1816879;78;26156;-47
2020/12/09 02:07:06;;;;;;;36.60;19.42;;;;;;;-2.13;70.05;100586.73;1816848;78;25785;-49
2020/12/09 02:09:33;;;;;;;45.28;20.20;;;;;;;-2.12;70.10;100590.18;1816866;78;26241;-49
2020/12/09 02:12:00;;;;;;;42.48;19.37;;;;;;;-2.13;70.05;100596.50;1816691;78;25672;-50
2020/12/09 02:14:27;;;;;;;41.30;20.15;;;;;;;-2.15;69.92;100592.73;1816884;78;25664;-48
2020/12/09 02:16:58;;;;;;;37.78;18.75;;;;;;;-2.18;69.99;100598.49;1816915;78;25874;-48
2020/12/09 02:19:27;;;;;;;39.00;18.95;;;;;;;-2.19;70.13;100598.70;1816872;78;25783;-50
2020/12/09 02:21:56;;;;;;;41.53;19.82;;;;;;;-2.21;70.20;100597.59;1816906;78;26293;-51
2020/12/09 02:24:25;;;;;;;39.50;19.27;;;;;;;-2.18;70.28;100606.45;1816116;78;26376;-52
2020/12/09 02:26:52;;;;;;;31.20;14.95;;;;;;;-2.18;70.12;100609.09;1816983;78;26293;-48
2020/12/09 02:29:18;;;;;;;40.90;18.00;;;;;;;-2.19;70.15;100615.41;1816841;78;27983;-53
2020/12/09 02:31:45;;;;;;;38.15;19.40;;;;;;;-2.20;70.03;100605.83;1816665;78;25725;-51
2020/12/09 02:34:12;;;;;;;40.60;19.73;;;;;;;-2.21;70.12;100599.41;1816851;78;25720;-48
2020/12/09 02:36:38;;;;;;;44.27;20.85;;;;;;;-2.23;70.13;100604.96;1816930;78;25634;-48
2020/12/09 02:39:05;;;;;;;40.15;19.15;;;;;;;-2.22;70.23;100605.77;1816868;78;25736;-49
2020/12/09 02:41:32;;;;;;;38.05;19.12;;;;;;;-2.23;70.12;100610.26;1816814;78;26399;-51
2020/12/09 02:43:59;;;;;;;40.48;20.10;;;;;;;-2.26;70.20;100602.21;1816823;78;25573;-51
2020/12/09 02:46:26;;;;;;;39.70;18.95;;;;;;;-2.26;70.19;100608.03;1816788;78;26278;-48
2020/12/09 02:48:53;;;;;;;36.95;18.95;;;;;;;-2.26;70.32;100612.81;1816787;78;25720;-50
2020/12/09 02:51:20;;;;;;;44.42;19.98;;;;;;;-2.28;70.17;100606.92;1816832;78;25678;-49
2020/12/09 02:53:46;;;;;;;35.48;18.30;;;;;;;-2.28;70.28;100610.90;1816790;78;27321;-49
2020/12/09 02:56:13;;;;;;;40.17;19.75;;;;;;;-2.27;70.33;100605.08;1816749;78;25738;-46
2020/12/09 02:58:40;;;;;;;42.27;19.20;;;;;;;-2.29;70.25;100607.94;1788187;78;25597;-48
2020/12/09 03:01:07;;;;;;;42.30;20.88;;;;;;;-2.31;70.27;100612.65;1822786;78;25615;-48
2020/12/09 03:03:33;;;;;;;42.33;19.42;;;;;;;-2.31;70.39;100609.20;1822877;78;25673;-51
2020/12/09 03:06:00;;;;;;;40.48;18.92;;;;;;;-2.31;70.38;100619.80;1822959;78;25839;-46
2020/12/09 03:08:26;;;;;;;40.20;19.40;;;;;;;-2.31;70.44;100612.65;1822770;78;25768;-49
2020/12/09 03:10:53;;;;;;;43.15;18.92;;;;;;;-2.30;70.47;100614.78;1822384;78;25642;-52
2020/12/09 03:13:19;;;;;;;42.48;20.00;;;;;;;-2.28;70.47;100622.02;1822346;78;25609;-52
2020/12/09 03:15:46;;;;;;;43.42;20.70;;;;;;;-2.27;70.44;100613.03;1822380;78;25603;-53
2020/12/09 03:18:13;;;;;;;42.48;21.15;;;;;;;-2.27;70.36;100602.42;1822278;78;26746;-45
2020/12/09 03:20:41;;;;;;;38.08;19.65;;;;;;;-2.30;70.40;100610.31;1822139;78;25619;-46
2020/12/09 03:23:08;;;;;;;38.15;19.10;;;;;;;-2.31;70.45;100604.70;1822410;78;26272;-50
2020/12/09 03:25:34;;;;;;;32.17;16.60;;;;;;;-2.34;70.38;100604.33;1822255;78;25852;-48
2020/12/09 03:28:01;;;;;;;34.00;16.42;;;;;;;-2.36;70.44;100611.16;1822256;78;25687;-49
2020/12/09 03:30:27;;;;;;;44.23;19.42;;;;;;;-2.40;70.51;100608.66;1822277;78;26238;-48
2020/12/09 03:32:54;;;;;;;46.28;19.95;;;;;;;-2.41;70.51;100600.92;1822182;78;25576;-48
2020/12/09 03:35:20;;;;;;;39.67;18.32;;;;;;;-2.44;70.58;100612.22;1822243;78;25656;-53
2020/12/09 03:37:47;;;;;;;40.10;19.77;;;;;;;-2.45;70.62;100609.81;1822202;78;25673;-47
2020/12/09 03:40:13;;;;;;;46.10;19.75;;;;;;;-2.45;70.67;100612.47;1822267;78;25548;-49
2020/12/09 03:42:40;;;;;;;42.00;22.10;;;;;;;-2.48;70.68;100615.02;1822255;78;26314;-50
2020/12/09 03:45:07;;;;;;;46.25;22.00;;;;;;;-2.51;70.81;100600.86;1822139;78;25693;-45
2020/12/09 03:47:33;;;;;;;39.90;19.92;;;;;;;-2.53;70.79;100600.28;1822381;78;25553;-48
2020/12/09 03:50:00;;;;;;;41.35;20.95;;;;;;;-2.54;70.84;100599.16;1822214;78;26006;-50
2020/12/09 03:52:27;;;;;;;39.05;19.87;;;;;;;-2.53;71.07;100606.09;1822290;78;25582;-49
2020/12/09 03:54:53;;;;;;;42.08;19.52;;;;;;;-2.54;70.96;100599.16;1822364;78;26132;-49
2020/12/09 03:57:20;;;;;;;41.13;19.82;;;;;;;-2.53;70.97;100600.80;1822198;78;25567;-49
2020/12/09 03:59:47;;;;;;;40.67;19.73;;;;;;;-2.53;70.99;100599.47;1817637;78;26207;-48
2020/12/09 04:02:17;;;;;;;41.92;19.32;;;;;;;-2.56;71.11;100592.75;1816211;78;25713;-53
2020/12/09 04:04:44;;;;;;;37.75;19.17;;;;;;;-2.55;71.14;100597.03;1816120;78;25843;-49
2020/12/09 04:07:10;;;;;;;44.48;20.82;;;;;;;-2.55;71.15;100592.27;1816206;78;27139;-49
2020/12/09 04:09:37;;;;;;;37.25;19.55;;;;;;;-2.54;71.19;100588.05;1816044;78;25591;-48
2020/12/09 04:12:03;;;;;;;42.88;19.87;;;;;;;-2.54;71.19;100591.22;1816109;78;25634;-49
2020/12/09 04:14:30;;;;;;;40.43;21.07;;;;;;;-2.54;71.19;100597.84;1816209;78;25893;-48
2020/12/09 04:16:57;;;;;;;45.52;20.12;;;;;;;-2.53;71.23;100598.15;1816281;78;25632;-52
2020/12/09 04:19:24;;;;;;;37.60;17.87;;;;;;;-2.51;71.28;100602.71;1816113;78;25892;-49
2020/12/09 04:21:50;;;;;;;43.92;21.10;;;;;;;-2.55;71.31;100597.03;1816041;78;25665;-49
2020/12/09 04:24:17;;;;;;;39.42;19.45;;;;;;;-2.57;71.24;100592.96;1816189;78;25709;-49
2020/12/09 04:26:44;;;;;;;40.45;20.35;;;;;;;-2.60;71.30;100593.41;1816186;78;25714;-49
2020/12/09 04:29:11;;;;;;;42.70;19.90;;;;;;;-2.63;71.39;100591.47;1816170;78;25658;-50
2020/12/09 04:31:37;;;;;;;39.20;18.67;;;;;;;-2.64;71.55;100596.48;1816113;78;25931;-48
2020/12/09 04:34:05;;;;;;;44.33;20.62;;;;;;;-2.65;71.50;100594.05;1816030;78;25585;-51
2020/12/09 04:36:32;;;;;;;47.38;21.10;;;;;;;-2.67;71.60;100590.81;1816231;78;26249;-52
2020/12/09 04:38:59;;;;;;;42.53;19.48;;;;;;;-2.69;71.66;100593.67;1816115;78;25694;-48
2020/12/09 04:41:26;;;;;;;45.75;20.17;;;;;;;-2.69;71.79;100591.52;1816179;78;25662;-46
2020/12/09 04:43:53;;;;;;;41.08;20.90;;;;;;;-2.70;71.73;100596.01;1816196;78;27123;-51
2020/12/09 04:46:20;;;;;;;44.73;20.72;;;;;;;-2.70;71.99;100589.39;1816143;78;25723;-50
2020/12/09 04:48:58;;;;;;;40.48;19.02;;;;;;;-2.70;71.83;100604.47;1784535;78;25655;-48
2020/12/09 04:51:42;;;;;;;35.30;17.45;;;;;;;-2.73;72.04;100591.12;1816200;78;25628;-48
2020/12/09 04:54:13;;;;;;;38.13;19.00;;;;;;;-2.77;72.21;100584.65;1816142;78;25667;-49
2020/12/09 04:56:53;;;;;;;41.37;20.40;;;;;;;-2.77;72.10;100584.65;1816103;78;26863;-47
2020/12/09 04:59:24;;;;;;;39.03;20.12;;;;;;;-2.76;72.22;100588.91;1803222;78;26448;-48
2020/12/09 05:02:04;;;;;;;39.88;19.57;;;;;;;-2.79;72.32;100589.36;1825362;78;25605;-50
2020/12/09 05:04:33;;;;;;;40.60;19.10;;;;;;;-2.79;72.41;100596.46;1825411;78;25696;-53
2020/12/09 05:07:10;;;;;;;38.55;19.15;;;;;;;-2.79;72.29;100593.81;1798035;78;26223;-51
2020/12/09 05:09:47;;;;;;;42.00;19.85;;;;;;;-2.76;72.56;100595.52;1825614;78;26853;-51
2020/12/09 05:12:17;;;;;;;41.02;19.40;;;;;;;-2.76;72.54;100593.39;1824464;78;25637;-49
2020/12/09 05:14:46;;;;;;;;;;;;;;;-2.76;72.44;100593.39;1828099;78;26284;-48
2020/12/09 05:17:20;;;;;;;;;;;;;;;-2.77;72.44;100585.17;1828181;78;25613;-50
2020/12/09 05:19:48;;;;;;;34.18;16.90;;;;;;;-2.78;72.57;100588.31;1825417;78;25586;-51
2020/12/09 05:22:22;;;;;;;37.85;17.65;;;;;;;-2.80;72.67;100584.27;1825423;78;25691;-49
2020/12/09 05:24:49;;;;;;;33.90;16.80;;;;;;;-2.80;72.58;100593.53;1825346;78;26402;-48
2020/12/09 05:27:16;;;;;;;35.52;17.98;;;;;;;-2.82;72.81;100586.61;1825379;78;26339;-49
2020/12/09 05:29:48;;;;;;;36.45;17.87;;;;;;;-2.82;72.78;100593.75;1825291;78;25559;-50
2020/12/09 05:32:16;;;;;;;33.90;18.32;;;;;;;-2.83;72.75;100602.21;1825339;78;25651;-52
2020/12/09 05:34:43;;;;;;;32.50;17.57;;;;;;;-2.82;72.77;100595.06;1825420;78;26513;-51
2020/12/09 05:37:12;;;;;;;41.00;19.15;;;;;;;-2.80;72.82;100599.63;1825217;78;25661;-49
2020/12/09 05:39:54;;;;;;;44.10;19.82;;;;;;;-2.76;72.88;100600.81;1825625;78;25554;-52
2020/12/09 05:42:23;;;;;;;38.02;17.90;;;;;;;-2.77;72.91;100595.24;1825430;78;25617;-50
2020/12/09 05:44:50;;;;;;;43.45;19.92;;;;;;;-2.77;72.84;100590.47;1825434;78;25717;-51
2020/12/09 05:47:20;;;;;;;42.05;18.90;;;;;;;-2.77;72.93;100591.27;1825364;78;26233;-51
2020/12/09 05:49:46;;;;;;;35.03;18.05;;;;;;;-2.75;72.93;100579.14;1825419;78;25654;-47
2020/12/09 05:52:16;;;;;;;35.73;17.60;;;;;;;-2.73;73.00;100603.56;1825252;78;25693;-47
2020/12/09 05:54:48;;;;;;;;;;;;;;;-2.76;73.05;100603.47;1828124;78;25634;-52
2020/12/09 05:57:18;;;;;;;35.00;16.67;;;;;;;-2.77;73.02;100605.83;1825553;78;25704;-53
2020/12/09 05:59:47;;;;;;;38.25;19.45;;;;;;;-2.76;73.02;100600.02;1824039;77;26999;-48
2020/12/09 06:02:18;;;;;;;43.30;20.08;;;;;;;-2.76;73.11;100602.14;1822529;78;29125;-48
2020/12/09 06:04:58;;;;;;;39.83;18.80;;;;;;;-2.75;73.17;100600.33;1822622;78;25651;-45
2020/12/09 06:07:31;;;;;;;38.02;18.87;;;;;;;-2.75;73.11;100612.24;1822558;78;26319;-46
2020/12/09 06:10:19;;;;;;;36.75;18.80;;;;;;;-2.75;73.22;100611.72;1822624;78;25574;-47
2020/12/09 06:13:00;;;;;;;39.95;18.80;;;;;;;-2.76;73.22;100602.14;1822443;78;26714;-52
2020/12/09 06:15:29;;;;;;;;;;;;;;;-2.77;73.54;100608.48;1825198;78;25682;-49
2020/12/09 06:18:08;;;;;;;39.75;17.62;;;;;;;-2.78;73.49;100606.05;1822520;78;25662;-52
2020/12/09 06:20:36;;;;;;;;;;;;;;;-2.79;73.47;100611.86;1825068;78;25964;-49
2020/12/09 06:23:09;;;;;;;33.38;16.40;;;;;;;-2.79;73.69;100601.76;1822508;78;25690;-53
2020/12/09 06:25:39;;;;;;;36.73;16.35;;;;;;;-2.81;73.70;100611.23;1821605;78;25900;-49
2020/12/09 06:28:15;;;;;;;37.23;17.55;;;;;;;-2.85;73.66;100619.31;1822078;78;26248;-52
2020/12/09 06:30:43;;;;;;;40.35;17.57;;;;;;;-2.85;73.84;100621.96;1821838;78;26312;-54
2020/12/09 06:33:10;;;;;;;38.92;18.30;;;;;;;-2.87;73.82;100612.91;1817396;77;25741;-53
2020/12/09 06:35:38;;;;;;;36.13;15.93;;;;;;;-2.87;74.02;100621.37;1833271;77;25705;-55
2020/12/09 06:38:13;;;;;;;38.50;18.75;;;;;;;-2.89;73.92;100614.95;1814796;77;25774;-58
2020/12/09 06:40:59;;;;;;;42.75;19.75;;;;;;;-2.87;74.01;100620.84;1814166;79;25661;-58
2020/12/09 06:43:26;;;;;;;38.73;18.80;;;;;;;-2.88;73.95;100629.00;1814327;79;25725;-57
2020/12/09 06:45:52;;;;;;;43.87;19.00;;;;;;;-2.91;74.12;100619.66;1814441;78;25618;-57
2020/12/09 06:48:19;;;;;;;36.53;16.20;;;;;;;-2.90;74.13;100637.15;1814612;79;25702;-57
2020/12/09 06:50:48;;;;;;;38.58;18.90;;;;;;;-2.89;74.17;100636.14;1814509;79;26432;-57
2020/12/09 06:53:24;;;;;;;37.75;17.23;;;;;;;-2.91;74.27;100626.28;1814659;79;25602;-57
2020/12/09 06:55:52;;;;;;;40.63;19.57;;;;;;;-2.92;74.21;100621.19;1814554;79;25698;-57
2020/12/09 06:58:29;;;;;;;41.68;18.35;;;;;;;-2.89;74.14;100633.49;1789350;79;25844;-47
2020/12/09 07:01:09;;;;;;;37.00;17.70;;;;;;;-2.87;74.26;100628.79;1813717;78;25741;-56
2020/12/09 07:06:33;;;;;;;42.80;18.03;;;;;;;-2.79;74.33;100625.59;1879380;76;32895;-57
2020/12/09 07:09:00;;;;;;;40.50;18.40;;;;;;;-2.86;74.12;100621.16;1849859;77;25690;-56
2020/12/09 07:11:26;;;;;;;40.20;18.25;;;;;;;-2.82;74.35;100616.25;1851072;77;25945;-57
2020/12/09 07:13:58;;;;;;;38.02;18.65;;;;;;;-2.79;74.27;100622.45;1826172;77;25470;-57
2020/12/09 07:16:28;;;;;;;36.13;16.50;;;;;;;-2.77;74.20;100611.13;1822628;76;25882;-56
2020/12/09 07:18:59;;;;;;;37.60;16.70;;;;;;;-2.72;74.07;100617.13;1816108;78;25619;-51
2020/12/09 07:21:29;;;;;;;33.58;14.33;;;;;;;-2.71;74.06;100618.72;1858210;76;25698;-57
2020/12/09 07:24:00;;;;;;;36.08;16.35;;;;;;;-2.70;73.99;100619.03;1856836;76;26937;-57
2020/12/09 07:26:27;;;;;;;41.00;17.20;;;;;;;-2.67;74.03;100625.23;1834391;76;25798;-57
2020/12/09 07:28:53;;;;;;;31.55;16.55;;;;;;;-2.66;73.98;100625.00;1820370;77;26198;-53
2020/12/09 07:31:20;;;;;;;32.60;15.35;;;;;;;-2.64;74.10;100621.65;1819563;77;25608;-57
2020/12/09 07:33:47;;;;;;;37.10;17.15;;;;;;;-2.62;73.90;100624.09;1817252;77;25551;-57
2020/12/09 07:36:13;;;;;;;33.98;16.85;;;;;;;-2.62;73.86;100626.73;1820311;77;26372;-55
2020/12/09 07:38:44;;;;;;;38.80;16.65;;;;;;;-2.63;73.72;100633.84;1815608;76;25680;-56
2020/12/09 07:41:11;;;;;;;36.13;17.30;;;;;;;-2.62;73.76;100630.70;1825282;77;25751;-50
2020/12/09 07:43:37;;;;;;;39.48;18.27;;;;;;;-2.60;73.84;100619.38;1815637;77;25689;-48
2020/12/09 07:46:04;;;;;;;34.20;17.25;;;;;;;-2.58;73.74;100623.14;1810039;76;25861;-56
2020/12/09 07:48:33;;;;;;;35.40;15.25;;;;;;;-2.57;73.72;100622.94;1816050;76;25944;-56
2020/12/09 07:51:00;;;;;;;35.03;16.25;;;;;;;-2.56;73.78;100623.21;1823361;76;25747;-56
2020/12/09 07:53:27;;;;;;;37.35;17.65;;;;;;;-2.55;73.66;100624.84;1815578;78;25693;-52
2020/12/09 07:55:54;;;;;;;34.35;16.67;;;;;;;-2.53;73.58;100629.41;1822706;78;25696;-55
2020/12/09 07:58:23;;;;;;;39.40;18.20;;;;;;;-2.50;73.51;100630.31;1824414;76;25907;-57
2020/12/09 08:00:50;;;;;;;21.33;10.00;;;;;;;-2.51;73.36;100631.33;1825933;77;26165;-56
2020/12/09 08:03:24;;;;;;;33.20;14.55;;;;;;;-2.54;73.26;100626.45;1835300;77;25862;-56
2020/12/09 08:05:52;;;;;;;33.20;15.98;;;;;;;-2.57;73.18;100630.05;1836578;77;26378;-58
2020/12/09 08:08:20;;;;;;;35.75;16.87;;;;;;;-2.60;73.16;100624.68;1835662;77;26262;-58
2020/12/09 08:10:51;;;;;;;38.23;17.27;;;;;;;-2.62;73.24;100621.44;1835810;76;25668;-58
2020/12/09 08:13:23;;;;;;;31.65;15.80;;;;;;;-2.61;73.32;100627.02;1838148;76;26710;-57
2020/12/09 08:16:10;;;;;;;39.92;17.20;;;;;;;;;;1819810;76;25684;-58
2020/12/09 08:18:37;;;;;;;32.40;15.48;;;;;;;-2.54;73.30;100625.12;1820002;76;25846;-53
2020/12/09 08:21:05;;;;;;;31.93;15.28;;;;;;;-2.54;73.04;100644.19;1816900;76;25728;-56
2020/12/09 08:26:36;;;;;;;35.47;16.33;;;;;;;-2.51;73.00;100647.74;1846383;76;29939;-60
2020/12/09 08:29:08;;;;;;;33.18;15.23;;;;;;;-2.56;73.17;100645.73;1801004;78;25702;-55
2020/12/09 08:31:34;;;;;;;32.00;16.35;;;;;;;-2.54;73.06;100658.77;1835685;77;25882;-57
2020/12/09 08:34:01;;;;;;;33.73;15.60;;;;;;;-2.51;73.08;100671.59;1847530;77;25770;-58
2020/12/09 08:36:30;;;;;;;41.77;16.77;;;;;;;-2.51;73.07;100664.96;1847711;77;25578;-56
2020/12/09 08:39:00;;;;;;;36.48;16.95;;;;;;;-2.52;72.92;100668.13;1847943;77;32476;-56
2020/12/09 08:41:31;;;;;;;;;;;;;;;-2.52;72.93;100659.36;1850426;77;25624;-47
2020/12/09 08:44:01;;;;;;;30.55;14.98;;;;;;;-2.49;73.01;100660.26;1847808;77;25744;-57
2020/12/09 08:46:29;;;;;;;33.73;16.32;;;;;;;-2.46;72.94;100663.29;1847758;77;25616;-57
2020/12/09 08:48:57;;;;;;;29.80;14.00;;;;;;;-2.44;72.84;100651.16;1847929;77;25656;-56
2020/12/09 08:51:30;;;;;;;36.98;17.20;;;;;;;-2.45;72.79;100649.03;1719759;81;26361;-56
2020/12/09 08:53:59;;;;;;;33.35;16.12;;;;;;;-2.44;72.83;100634.73;1692237;83;26391;-57
2020/12/09 08:56:31;;;;;;;39.27;16.27;;;;;;;-2.44;72.71;100637.39;1723230;83;26669;-61
2020/12/09 08:58:59;;;;;;;33.70;15.28;;;;;;;-2.40;72.79;100639.12;1722930;83;25831;-58
2020/12/09 09:01:26;;;;;;;34.85;16.93;;;;;;;-2.36;72.71;100644.28;1723130;83;25689;-59
2020/12/09 09:06:33;;;;;;;36.77;15.43;;;;;;;-2.24;72.64;100637.78;1846480;76;32874;-58
2020/12/09 09:09:00;;;;;;;34.27;16.37;;;;;;;-2.28;72.47;100631.30;1816470;78;25950;-59
2020/12/09 09:11:30;;;;;;;34.92;16.87;;;;;;;-2.26;72.50;100641.16;1798007;78;25889;-60
2020/12/09 09:13:55;;;;;;;34.95;16.30;;;;;;;-2.27;72.38;100638.20;1803172;78;25676;-58
2020/12/09 09:16:22;;;;;;;32.23;15.63;;;;;;;-2.26;72.55;100644.61;1816421;78;25613;-57
2020/12/09 09:18:50;;;;;;;38.10;16.73;;;;;;;-2.22;72.41;100642.86;1816396;78;26219;-57
2020/12/09 09:21:17;;;;;;;32.73;14.45;;;;;;;-2.21;72.41;100640.00;1816506;78;25695;-57
2020/12/09 09:23:44;;;;;;;33.98;16.32;;;;;;;-2.19;72.29;100639.79;1816902;78;27213;-57
2020/12/09 09:26:12;;;;;;;38.28;17.65;;;;;;;-2.18;72.33;100636.92;1831464;77;25689;-48
2020/12/09 09:28:39;;;;;;;40.15;17.82;;;;;;;-2.17;72.36;100636.41;1835238;77;25616;-54
2020/12/09 09:31:06;;;;;;;39.33;16.70;;;;;;;-2.15;72.33;100642.30;1810441;79;25609;-56
2020/12/09 09:33:33;;;;;;;38.15;16.77;;;;;;;-2.12;72.37;100643.99;1806905;78;25593;-58
2020/12/09 09:35:59;;;;;;;36.90;16.35;;;;;;;-2.11;72.15;100642.15;1813081;78;26653;-55
2020/12/09 09:38:26;;;;;;;38.65;16.97;;;;;;;-2.13;72.11;100638.91;1844235;77;26403;-55
2020/12/09 09:40:53;;;;;;;37.60;17.42;;;;;;;-2.12;72.21;100640.02;1756526;80;26409;-46
2020/12/09 09:43:19;;;;;;;40.85;17.73;;;;;;;-2.07;72.36;100638.05;1753239;81;25667;-47
2020/12/09 09:45:47;;;;;;;40.08;17.98;;;;;;;-2.03;71.94;100628.62;1753210;81;25746;-53
2020/12/09 09:48:14;;;;;;;37.13;17.45;;;;;;;-2.03;72.02;100634.45;1732948;81;25969;-57
2020/12/09 09:50:41;;;;;;;37.98;17.48;;;;;;;-2.02;71.94;100636.09;1719526;83;25691;-56
2020/12/09 09:53:08;;;;;;;38.65;17.17;;;;;;;-2.04;71.85;100634.14;1709879;83;26418;-57
2020/12/09 09:55:36;;;;;;;35.63;16.00;;;;;;;-2.00;72.02;100627.39;1721013;81;25730;-57
2020/12/09 09:58:02;;;;;;;40.40;18.27;;;;;;;-1.98;71.93;100639.39;1692430;84;25681;-53
2020/12/09 10:00:29;;;;;;;36.42;17.50;;;;;;;-1.96;71.92;100634.70;1694321;83;25920;-55
2020/12/09 10:02:56;;;;;;;36.35;16.55;;;;;;;-1.95;71.87;100624.38;1721224;82;25710;-56
2020/12/09 10:05:24;;;;;;;40.33;17.23;;;;;;;-1.94;71.58;100625.19;1726971;82;25718;-56
2020/12/09 10:07:52;;;;;;;37.45;17.42;;;;;;;-1.95;71.70;100625.70;1732730;82;25696;-56
2020/12/09 10:10:19;;;;;;;39.42;18.32;;;;;;;-1.93;71.71;100619.66;1732845;82;25729;-48
2020/12/09 10:12:46;;;;;;;41.63;17.12;;;;;;;-1.91;71.64;100620.78;1733046;81;25769;-54
2020/12/09 10:15:13;;;;;;;39.55;17.75;;;;;;;-1.90;71.67;100626.39;1750338;81;25815;-56
2020/12/09 10:17:40;;;;;;;41.33;19.92;;;;;;;-1.88;71.56;100621.67;1743085;81;25711;-56
2020/12/09 10:20:07;;;;;;;39.08;17.10;;;;;;;-1.85;71.58;100619.11;1739810;81;25768;-50
2020/12/09 10:22:36;;;;;;;37.60;17.50;;;;;;;-1.82;71.54;100619.98;1750055;81;25814;-54
2020/12/09 10:25:03;;;;;;;42.40;17.60;;;;;;;-1.84;71.32;100617.54;1750408;81;26660;-49
2020/12/09 10:27:30;;;;;;;40.85;19.85;;;;;;;-1.81;71.37;100616.31;1750129;81;25568;-55
2020/12/09 10:29:57;;;;;;;41.42;17.37;;;;;;;-1.76;71.45;100599.22;1750096;81;26238;-56
2020/12/09 10:32:24;;;;;;;41.05;18.77;;;;;;;-1.71;71.51;100608.66;1750151;81;25861;-51
2020/12/09 10:34:51;;;;;;;46.42;18.42;;;;;;;-1.68;71.26;100606.09;1749917;81;25738;-56
2020/12/09 10:37:18;;;;;;;41.80;18.07;;;;;;;-1.70;70.91;100600.48;1750249;81;26387;-50
2020/12/09 10:39:46;;;;;;;34.35;17.02;;;;;;;-1.68;71.17;100606.09;1750008;81;25728;-51
2020/12/09 10:42:12;;;;;;;39.20;16.73;;;;;;;-1.67;71.04;100597.09;1750237;81;25714;-55
2020/12/09 10:44:39;;;;;;;36.15;16.97;;;;;;;-1.69;70.81;100592.00;1750104;81;26114;-55
2020/12/09 10:47:07;;;;;;;40.15;17.55;;;;;;;-1.75;70.78;100592.38;1750226;81;25601;-57
2020/12/09 10:49:34;;;;;;;39.05;16.23;;;;;;;-1.71;71.19;100590.09;1738578;79;26247;-56
2020/12/09 10:52:00;;;;;;;39.83;17.55;;;;;;;-1.68;71.17;100599.47;1750673;81;25592;-51
2020/12/09 10:54:27;;;;;;;40.70;17.75;;;;;;;-1.64;70.91;100596.13;1706199;84;25602;-52
2020/12/09 10:56:54;;;;;;;39.10;18.42;;;;;;;-1.65;70.89;100589.72;1750631;81;25709;-51
2020/12/09 10:59:20;;;;;;;38.48;17.73;;;;;;;-1.63;71.00;100579.72;1707723;83;26286;-55
2020/12/09 11:01:47;;;;;;;43.60;20.43;;;;;;;-1.62;70.89;100583.45;1750851;81;25717;-55
2020/12/09 11:04:14;;;;;;;37.38;17.37;;;;;;;-1.61;70.85;100583.76;1707729;83;25894;-53
2020/12/09 11:06:44;;;;;;;41.98;18.48;;;;;;;-1.60;70.87;100581.91;1760951;81;25600;-58
2020/12/09 11:09:09;;;;;;;39.78;18.62;;;;;;;-1.58;70.78;100575.36;1763548;81;25756;-55
2020/12/09 11:11:37;;;;;;;39.67;17.32;;;;;;;-1.61;70.65;100584.28;1751443;81;25830;-55
2020/12/09 11:14:04;;;;;;;41.55;17.35;;;;;;;-1.63;70.67;100581.05;1735578;82;26422;-57
2020/12/09 11:16:31;;;;;;;39.65;17.45;;;;;;;-1.61;70.93;100589.06;1735491;82;25742;-60
2020/12/09 11:18:58;;;;;;;37.10;16.37;;;;;;;-1.61;70.71;100579.78;1727531;81;25764;-56
2020/12/09 11:21:25;;;;;;;39.70;15.23;;;;;;;-1.60;70.64;100567.31;1756220;81;25694;-57
2020/12/09 11:23:52;;;;;;;39.50;18.23;;;;;;;-1.64;70.64;100566.95;1758044;81;25652;-57
2020/12/09 11:26:21;;;;;;;38.13;16.35;;;;;;;-1.64;70.73;100570.93;1757940;81;27546;-54